sensor_id;sensor_type;location;lat;lon;timestamp;P1;durP1;ratioP1;P2;durP2;ratioP2
13967;SDS011;39536;52.198;9.920;2023-02-26T00:01:52;5.33;;;1.30;;
13967;SDS011;39536;52.198;9.920;2023-02-26T00:04:26;6.13;;;1.90;;
13967;SDS011;39536;52.198;9.920;2023-02-26T00:06:52;6.83;;;2.40;;
13967;SDS011;39536;52.198;9.920;2023-02-26T00:09:19;4.10;;;1.87;;
13967;SDS011;39536;52.198;9.920;2023-02-26T00:11:46;5.83;;;2.40;;
13967;SDS011;39536;52.198;9.920;2023-02-26T00:14:15;3.30;;;1.80;;
13967;SDS011;39536;52.198;9.920;2023-02-26T00:16:42;2.93;;;1.53;;
13967;SDS011;39536;52.198;9.920;2023-02-26T00:19:13;4.00;;;1.80;;
13967;SDS011;39536;52.198;9.920;2023-02-26T00:21:40;4.17;;;2.07;;
13967;SDS011;39536;52.198;9.920;2023-02-26T00:24:07;1.67;;;1.17;;
13967;SDS011;39536;52.198;9.920;2023-02-26T00:26:33;3.97;;;1.63;;
13967;SDS011;39536;52.198;9.920;2023-02-26T00:29:01;3.53;;;2.03;;
13967;SDS011;39536;52.198;9.920;2023-02-26T00:31:30;3.00;;;1.60;;
13967;SDS011;39536;52.198;9.920;2023-02-26T00:33:57;2.80;;;1.57;;
13967;SDS011;39536;52.198;9.920;2023-02-26T00:36:27;2.67;;;2.00;;
13967;SDS011;39536;52.198;9.920;2023-02-26T00:39:04;2.93;;;1.93;;
13967;SDS011;39536;52.198;9.920;2023-02-26T00:41:35;2.97;;;1.70;;
13967;SDS011;39536;52.198;9.920;2023-02-26T00:44:03;2.17;;;1.73;;
13967;SDS011;39536;52.198;9.920;2023-02-26T00:46:35;2.40;;;1.50;;
13967;SDS011;39536;52.198;9.920;2023-02-26T00:49:10;1.53;;;1.43;;
13967;SDS011;39536;52.198;9.920;2023-02-26T00:51:44;3.63;;;1.93;;
13967;SDS011;39536;52.198;9.920;2023-02-26T00:54:15;2.57;;;1.83;;
13967;SDS011;39536;52.198;9.920;2023-02-26T00:56:44;3.63;;;2.17;;
13967;SDS011;39536;52.198;9.920;2023-02-26T00:59:11;4.93;;;2.03;;
13967;SDS011;39536;52.198;9.920;2023-02-26T01:01:39;4.93;;;2.03;;
13967;SDS011;39536;52.198;9.920;2023-02-26T01:04:06;2.23;;;1.70;;
13967;SDS011;39536;52.198;9.920;2023-02-26T01:06:33;2.30;;;1.60;;
13967;SDS011;39536;52.198;9.920;2023-02-26T01:09:08;3.63;;;1.67;;
13967;SDS011;39536;52.198;9.920;2023-02-26T01:11:41;4.07;;;1.83;;
13967;SDS011;39536;52.198;9.920;2023-02-26T01:14:08;4.97;;;1.97;;
13967;SDS011;39536;52.198;9.920;2023-02-26T01:16:36;4.47;;;2.13;;
13967;SDS011;39536;52.198;9.920;2023-02-26T01:19:16;2.80;;;1.63;;
13967;SDS011;39536;52.198;9.920;2023-02-26T01:21:50;4.57;;;1.97;;
13967;SDS011;39536;52.198;9.920;2023-02-26T01:24:21;2.10;;;1.60;;
13967;SDS011;39536;52.198;9.920;2023-02-26T01:26:50;4.03;;;1.40;;
13967;SDS011;39536;52.198;9.920;2023-02-26T01:29:17;3.20;;;1.93;;
13967;SDS011;39536;52.198;9.920;2023-02-26T01:31:48;3.03;;;1.60;;
13967;SDS011;39536;52.198;9.920;2023-02-26T01:34:21;3.20;;;1.43;;
13967;SDS011;39536;52.198;9.920;2023-02-26T01:36:53;4.40;;;2.33;;
13967;SDS011;39536;52.198;9.920;2023-02-26T01:39:25;2.70;;;1.67;;
13967;SDS011;39536;52.198;9.920;2023-02-26T01:41:56;4.43;;;1.77;;
13967;SDS011;39536;52.198;9.920;2023-02-26T01:44:30;5.33;;;1.90;;
13967;SDS011;39536;52.198;9.920;2023-02-26T01:47:05;2.20;;;1.77;;
13967;SDS011;39536;52.198;9.920;2023-02-26T01:49:40;3.70;;;1.40;;
13967;SDS011;39536;52.198;9.920;2023-02-26T01:55:09;1.40;;;1.20;;
13967;SDS011;39536;52.198;9.920;2023-02-26T01:57:36;3.43;;;1.27;;
13967;SDS011;39536;52.198;9.920;2023-02-26T02:00:03;4.77;;;1.60;;
13967;SDS011;39536;52.198;9.920;2023-02-26T02:02:32;4.17;;;1.60;;
13967;SDS011;39536;52.198;9.920;2023-02-26T02:04:58;6.63;;;1.80;;
13967;SDS011;39536;52.198;9.920;2023-02-26T02:07:29;5.70;;;2.10;;
13967;SDS011;39536;52.198;9.920;2023-02-26T02:09:56;5.07;;;1.60;;
13967;SDS011;39536;52.198;9.920;2023-02-26T02:12:24;3.13;;;1.50;;
13967;SDS011;39536;52.198;9.920;2023-02-26T02:15:03;3.63;;;1.43;;
13967;SDS011;39536;52.198;9.920;2023-02-26T02:17:40;3.57;;;1.60;;
13967;SDS011;39536;52.198;9.920;2023-02-26T02:23:18;2.00;;;1.10;;
13967;SDS011;39536;52.198;9.920;2023-02-26T02:28:58;4.70;;;2.00;;
13967;SDS011;39536;52.198;9.920;2023-02-26T02:31:44;3.13;;;1.53;;
13967;SDS011;39536;52.198;9.920;2023-02-26T02:34:15;3.73;;;1.73;;
13967;SDS011;39536;52.198;9.920;2023-02-26T02:36:48;2.20;;;1.83;;
13967;SDS011;39536;52.198;9.920;2023-02-26T02:39:18;6.27;;;2.10;;
13967;SDS011;39536;52.198;9.920;2023-02-26T02:41:50;2.40;;;1.83;;
13967;SDS011;39536;52.198;9.920;2023-02-26T02:44:22;3.60;;;1.50;;
13967;SDS011;39536;52.198;9.920;2023-02-26T02:46:53;2.10;;;1.33;;
13967;SDS011;39536;52.198;9.920;2023-02-26T02:49:23;3.07;;;1.30;;
13967;SDS011;39536;52.198;9.920;2023-02-26T02:51:54;1.73;;;1.27;;
13967;SDS011;39536;52.198;9.920;2023-02-26T02:54:26;2.43;;;1.40;;
13967;SDS011;39536;52.198;9.920;2023-02-26T02:57:00;2.10;;;1.27;;
13967;SDS011;39536;52.198;9.920;2023-02-26T02:59:35;1.40;;;1.30;;
13967;SDS011;39536;52.198;9.920;2023-02-26T03:02:09;2.43;;;1.47;;
13967;SDS011;39536;52.198;9.920;2023-02-26T03:04:40;4.27;;;1.40;;
13967;SDS011;39536;52.198;9.920;2023-02-26T03:07:08;3.70;;;1.10;;
13967;SDS011;39536;52.198;9.920;2023-02-26T03:09:35;2.80;;;1.33;;
13967;SDS011;39536;52.198;9.920;2023-02-26T03:12:02;2.63;;;1.53;;
13967;SDS011;39536;52.198;9.920;2023-02-26T03:14:29;4.00;;;1.63;;
13967;SDS011;39536;52.198;9.920;2023-02-26T03:17:00;2.17;;;1.20;;
13967;SDS011;39536;52.198;9.920;2023-02-26T03:19:37;6.03;;;1.90;;
13967;SDS011;39536;52.198;9.920;2023-02-26T03:22:12;4.23;;;3.33;;
13967;SDS011;39536;52.198;9.920;2023-02-26T03:24:45;5.37;;;3.57;;
13967;SDS011;39536;52.198;9.920;2023-02-26T03:27:18;4.40;;;2.23;;
13967;SDS011;39536;52.198;9.920;2023-02-26T03:29:49;3.63;;;1.70;;
13967;SDS011;39536;52.198;9.920;2023-02-26T03:32:20;3.90;;;2.23;;
13967;SDS011;39536;52.198;9.920;2023-02-26T03:34:53;6.53;;;1.77;;
13967;SDS011;39536;52.198;9.920;2023-02-26T03:37:25;4.30;;;1.50;;
13967;SDS011;39536;52.198;9.920;2023-02-26T03:39:58;4.37;;;1.93;;
13967;SDS011;39536;52.198;9.920;2023-02-26T03:42:31;4.00;;;2.20;;
13967;SDS011;39536;52.198;9.920;2023-02-26T03:45:04;6.03;;;1.40;;
13967;SDS011;39536;52.198;9.920;2023-02-26T03:47:34;4.30;;;1.70;;
13967;SDS011;39536;52.198;9.920;2023-02-26T03:50:04;2.37;;;1.53;;
13967;SDS011;39536;52.198;9.920;2023-02-26T03:52:34;2.33;;;1.50;;
13967;SDS011;39536;52.198;9.920;2023-02-26T03:55:05;1.90;;;1.37;;
13967;SDS011;39536;52.198;9.920;2023-02-26T03:57:36;2.53;;;1.37;;
13967;SDS011;39536;52.198;9.920;2023-02-26T04:00:03;3.00;;;1.50;;
13967;SDS011;39536;52.198;9.920;2023-02-26T04:02:32;1.37;;;1.27;;
13967;SDS011;39536;52.198;9.920;2023-02-26T04:05:05;4.87;;;1.70;;
13967;SDS011;39536;52.198;9.920;2023-02-26T04:07:35;3.57;;;1.23;;
13967;SDS011;39536;52.198;9.920;2023-02-26T04:10:02;2.57;;;1.30;;
13967;SDS011;39536;52.198;9.920;2023-02-26T04:12:30;3.13;;;1.10;;
13967;SDS011;39536;52.198;9.920;2023-02-26T04:14:57;4.20;;;1.30;;
13967;SDS011;39536;52.198;9.920;2023-02-26T04:17:24;4.10;;;1.43;;
13967;SDS011;39536;52.198;9.920;2023-02-26T04:19:51;1.83;;;0.87;;
13967;SDS011;39536;52.198;9.920;2023-02-26T04:22:19;3.80;;;1.30;;
13967;SDS011;39536;52.198;9.920;2023-02-26T04:24:45;2.73;;;1.83;;
13967;SDS011;39536;52.198;9.920;2023-02-26T04:27:12;2.10;;;1.23;;
13967;SDS011;39536;52.198;9.920;2023-02-26T04:29:38;2.30;;;1.80;;
13967;SDS011;39536;52.198;9.920;2023-02-26T04:32:05;4.67;;;2.50;;
13967;SDS011;39536;52.198;9.920;2023-02-26T04:34:32;2.30;;;1.83;;
13967;SDS011;39536;52.198;9.920;2023-02-26T04:36:58;4.43;;;1.17;;
13967;SDS011;39536;52.198;9.920;2023-02-26T04:39:26;6.07;;;1.20;;
13967;SDS011;39536;52.198;9.920;2023-02-26T04:41:53;2.50;;;1.60;;
13967;SDS011;39536;52.198;9.920;2023-02-26T04:44:19;2.50;;;2.03;;
13967;SDS011;39536;52.198;9.920;2023-02-26T04:46:46;6.03;;;1.43;;
13967;SDS011;39536;52.198;9.920;2023-02-26T04:49:12;2.43;;;1.50;;
13967;SDS011;39536;52.198;9.920;2023-02-26T04:51:39;2.23;;;1.47;;
13967;SDS011;39536;52.198;9.920;2023-02-26T04:54:06;4.50;;;1.40;;
13967;SDS011;39536;52.198;9.920;2023-02-26T04:56:34;2.23;;;1.20;;
13967;SDS011;39536;52.198;9.920;2023-02-26T04:59:00;6.17;;;1.13;;
13967;SDS011;39536;52.198;9.920;2023-02-26T05:01:27;3.20;;;1.30;;
13967;SDS011;39536;52.198;9.920;2023-02-26T05:03:54;1.77;;;1.30;;
13967;SDS011;39536;52.198;9.920;2023-02-26T05:06:20;2.83;;;1.30;;
13967;SDS011;39536;52.198;9.920;2023-02-26T05:08:47;2.27;;;1.07;;
13967;SDS011;39536;52.198;9.920;2023-02-26T05:11:13;3.67;;;1.50;;
13967;SDS011;39536;52.198;9.920;2023-02-26T05:13:41;3.57;;;1.10;;
13967;SDS011;39536;52.198;9.920;2023-02-26T05:16:08;2.10;;;1.10;;
13967;SDS011;39536;52.198;9.920;2023-02-26T05:18:35;1.20;;;1.10;;
13967;SDS011;39536;52.198;9.920;2023-02-26T05:21:02;1.73;;;1.07;;
13967;SDS011;39536;52.198;9.920;2023-02-26T05:23:29;2.53;;;1.23;;
13967;SDS011;39536;52.198;9.920;2023-02-26T05:25:56;4.40;;;1.30;;
13967;SDS011;39536;52.198;9.920;2023-02-26T05:28:23;1.73;;;0.90;;
13967;SDS011;39536;52.198;9.920;2023-02-26T05:30:52;6.33;;;1.23;;
13967;SDS011;39536;52.198;9.920;2023-02-26T05:33:19;2.50;;;1.13;;
13967;SDS011;39536;52.198;9.920;2023-02-26T05:35:45;2.10;;;0.90;;
13967;SDS011;39536;52.198;9.920;2023-02-26T05:38:13;3.00;;;1.07;;
13967;SDS011;39536;52.198;9.920;2023-02-26T05:40:39;2.57;;;1.10;;
13967;SDS011;39536;52.198;9.920;2023-02-26T05:43:06;2.20;;;1.20;;
13967;SDS011;39536;52.198;9.920;2023-02-26T05:45:33;1.27;;;1.03;;
13967;SDS011;39536;52.198;9.920;2023-02-26T05:48:01;3.03;;;1.30;;
13967;SDS011;39536;52.198;9.920;2023-02-26T05:50:28;2.83;;;0.93;;
13967;SDS011;39536;52.198;9.920;2023-02-26T05:52:55;1.50;;;1.07;;
13967;SDS011;39536;52.198;9.920;2023-02-26T05:55:22;3.53;;;1.23;;
13967;SDS011;39536;52.198;9.920;2023-02-26T05:57:48;3.63;;;1.40;;
13967;SDS011;39536;52.198;9.920;2023-02-26T06:00:15;2.23;;;1.10;;
13967;SDS011;39536;52.198;9.920;2023-02-26T06:02:42;2.97;;;0.90;;
13967;SDS011;39536;52.198;9.920;2023-02-26T06:05:10;1.20;;;0.87;;
13967;SDS011;39536;52.198;9.920;2023-02-26T06:07:37;1.43;;;0.93;;
13967;SDS011;39536;52.198;9.920;2023-02-26T06:10:04;2.43;;;0.80;;
13967;SDS011;39536;52.198;9.920;2023-02-26T06:12:32;4.60;;;1.57;;
13967;SDS011;39536;52.198;9.920;2023-02-26T06:14:59;1.30;;;0.80;;
13967;SDS011;39536;52.198;9.920;2023-02-26T06:17:26;2.43;;;1.27;;
13967;SDS011;39536;52.198;9.920;2023-02-26T06:19:52;3.53;;;1.40;;
13967;SDS011;39536;52.198;9.920;2023-02-26T06:22:20;2.57;;;1.47;;
13967;SDS011;39536;52.198;9.920;2023-02-26T06:24:47;1.00;;;0.80;;
13967;SDS011;39536;52.198;9.920;2023-02-26T06:27:13;2.73;;;1.10;;
13967;SDS011;39536;52.198;9.920;2023-02-26T06:29:40;3.67;;;1.40;;
13967;SDS011;39536;52.198;9.920;2023-02-26T06:32:07;2.33;;;1.00;;
13967;SDS011;39536;52.198;9.920;2023-02-26T06:34:34;2.23;;;1.50;;
13967;SDS011;39536;52.198;9.920;2023-02-26T06:37:00;4.27;;;1.47;;
13967;SDS011;39536;52.198;9.920;2023-02-26T06:39:28;2.23;;;1.20;;
13967;SDS011;39536;52.198;9.920;2023-02-26T06:41:55;4.07;;;1.13;;
13967;SDS011;39536;52.198;9.920;2023-02-26T06:44:21;4.60;;;1.20;;
13967;SDS011;39536;52.198;9.920;2023-02-26T06:46:48;3.70;;;1.30;;
13967;SDS011;39536;52.198;9.920;2023-02-26T06:49:15;2.67;;;0.87;;
13967;SDS011;39536;52.198;9.920;2023-02-26T06:51:41;2.20;;;1.50;;
13967;SDS011;39536;52.198;9.920;2023-02-26T06:54:08;2.57;;;1.53;;
13967;SDS011;39536;52.198;9.920;2023-02-26T06:56:36;2.67;;;0.80;;
13967;SDS011;39536;52.198;9.920;2023-02-26T06:59:03;2.60;;;1.20;;
13967;SDS011;39536;52.198;9.920;2023-02-26T07:01:29;2.37;;;1.50;;
13967;SDS011;39536;52.198;9.920;2023-02-26T07:03:57;2.20;;;1.10;;
13967;SDS011;39536;52.198;9.920;2023-02-26T07:06:23;3.63;;;1.37;;
13967;SDS011;39536;52.198;9.920;2023-02-26T07:08:50;3.03;;;2.10;;
13967;SDS011;39536;52.198;9.920;2023-02-26T07:11:16;4.80;;;4.40;;
13967;SDS011;39536;52.198;9.920;2023-02-26T07:13:44;3.10;;;1.60;;
13967;SDS011;39536;52.198;9.920;2023-02-26T07:16:11;3.83;;;3.53;;
13967;SDS011;39536;52.198;9.920;2023-02-26T07:18:38;2.17;;;1.60;;
13967;SDS011;39536;52.198;9.920;2023-02-26T07:21:04;4.60;;;1.57;;
13967;SDS011;39536;52.198;9.920;2023-02-26T07:23:31;2.97;;;1.40;;
13967;SDS011;39536;52.198;9.920;2023-02-26T07:25:58;2.57;;;1.30;;
13967;SDS011;39536;52.198;9.920;2023-02-26T07:28:24;2.33;;;1.00;;
13967;SDS011;39536;52.198;9.920;2023-02-26T07:30:54;1.47;;;1.03;;
13967;SDS011;39536;52.198;9.920;2023-02-26T07:33:20;3.30;;;1.17;;
13967;SDS011;39536;52.198;9.920;2023-02-26T07:35:47;2.37;;;0.90;;
13967;SDS011;39536;52.198;9.920;2023-02-26T07:38:14;2.10;;;1.20;;
13967;SDS011;39536;52.198;9.920;2023-02-26T07:40:41;1.13;;;0.93;;
13967;SDS011;39536;52.198;9.920;2023-02-26T07:43:07;1.23;;;1.10;;
13967;SDS011;39536;52.198;9.920;2023-02-26T07:45:34;1.33;;;1.03;;
13967;SDS011;39536;52.198;9.920;2023-02-26T07:48:02;2.90;;;1.13;;
13967;SDS011;39536;52.198;9.920;2023-02-26T07:50:28;7.90;;;1.60;;
13967;SDS011;39536;52.198;9.920;2023-02-26T07:52:55;1.60;;;0.80;;
13967;SDS011;39536;52.198;9.920;2023-02-26T07:55:22;2.23;;;1.13;;
13967;SDS011;39536;52.198;9.920;2023-02-26T07:57:48;1.53;;;1.33;;
13967;SDS011;39536;52.198;9.920;2023-02-26T08:00:15;3.43;;;1.30;;
13967;SDS011;39536;52.198;9.920;2023-02-26T08:02:43;3.80;;;1.50;;
13967;SDS011;39536;52.198;9.920;2023-02-26T08:05:11;2.00;;;0.87;;
13967;SDS011;39536;52.198;9.920;2023-02-26T08:07:37;1.47;;;0.90;;
13967;SDS011;39536;52.198;9.920;2023-02-26T08:10:04;2.67;;;1.77;;
13967;SDS011;39536;52.198;9.920;2023-02-26T08:12:31;1.80;;;0.90;;
13967;SDS011;39536;52.198;9.920;2023-02-26T08:14:58;2.23;;;1.00;;
13967;SDS011;39536;52.198;9.920;2023-02-26T08:17:24;2.33;;;1.00;;
13967;SDS011;39536;52.198;9.920;2023-02-26T08:19:51;1.77;;;1.00;;
13967;SDS011;39536;52.198;9.920;2023-02-26T08:22:19;3.10;;;1.20;;
13967;SDS011;39536;52.198;9.920;2023-02-26T08:24:46;1.80;;;1.37;;
13967;SDS011;39536;52.198;9.920;2023-02-26T08:27:12;1.10;;;1.00;;
13967;SDS011;39536;52.198;9.920;2023-02-26T08:29:39;3.53;;;1.17;;
13967;SDS011;39536;52.198;9.920;2023-02-26T08:32:06;2.70;;;1.87;;
13967;SDS011;39536;52.198;9.920;2023-02-26T08:34:33;2.03;;;1.40;;
13967;SDS011;39536;52.198;9.920;2023-02-26T08:37:00;2.37;;;1.20;;
13967;SDS011;39536;52.198;9.920;2023-02-26T08:39:28;5.13;;;1.10;;
13967;SDS011;39536;52.198;9.920;2023-02-26T08:41:57;2.10;;;1.47;;
13967;SDS011;39536;52.198;9.920;2023-02-26T08:44:23;2.60;;;1.87;;
13967;SDS011;39536;52.198;9.920;2023-02-26T08:46:50;2.40;;;1.63;;
13967;SDS011;39536;52.198;9.920;2023-02-26T08:49:16;3.47;;;1.60;;
13967;SDS011;39536;52.198;9.920;2023-02-26T08:51:43;3.37;;;1.77;;
13967;SDS011;39536;52.198;9.920;2023-02-26T08:54:10;2.77;;;1.10;;
13967;SDS011;39536;52.198;9.920;2023-02-26T08:56:38;1.70;;;1.27;;
13967;SDS011;39536;52.198;9.920;2023-02-26T08:59:04;2.60;;;1.20;;
13967;SDS011;39536;52.198;9.920;2023-02-26T09:01:31;4.27;;;1.53;;
13967;SDS011;39536;52.198;9.920;2023-02-26T09:03:58;1.47;;;1.33;;
13967;SDS011;39536;52.198;9.920;2023-02-26T09:06:24;2.87;;;1.93;;
13967;SDS011;39536;52.198;9.920;2023-02-26T09:08:51;3.33;;;1.30;;
13967;SDS011;39536;52.198;9.920;2023-02-26T09:11:17;1.97;;;1.27;;
13967;SDS011;39536;52.198;9.920;2023-02-26T09:13:45;5.27;;;1.50;;
13967;SDS011;39536;52.198;9.920;2023-02-26T09:16:12;1.77;;;1.20;;
13967;SDS011;39536;52.198;9.920;2023-02-26T09:18:39;1.60;;;1.30;;
13967;SDS011;39536;52.198;9.920;2023-02-26T09:21:05;2.43;;;1.70;;
13967;SDS011;39536;52.198;9.920;2023-02-26T09:23:32;2.57;;;1.57;;
13967;SDS011;39536;52.198;9.920;2023-02-26T09:25:58;2.23;;;1.50;;
13967;SDS011;39536;52.198;9.920;2023-02-26T09:28:25;1.30;;;1.17;;
13967;SDS011;39536;52.198;9.920;2023-02-26T09:30:53;2.10;;;1.10;;
13967;SDS011;39536;52.198;9.920;2023-02-26T09:33:20;1.50;;;1.00;;
13967;SDS011;39536;52.198;9.920;2023-02-26T09:35:47;3.40;;;1.40;;
13967;SDS011;39536;52.198;9.920;2023-02-26T09:38:15;1.10;;;0.90;;
13967;SDS011;39536;52.198;9.920;2023-02-26T09:40:43;2.47;;;1.30;;
13967;SDS011;39536;52.198;9.920;2023-02-26T09:43:18;2.57;;;1.37;;
13967;SDS011;39536;52.198;9.920;2023-02-26T09:45:57;2.07;;;1.77;;
13967;SDS011;39536;52.198;9.920;2023-02-26T09:48:27;2.27;;;1.00;;
13967;SDS011;39536;52.198;9.920;2023-02-26T09:50:56;1.10;;;0.97;;
13967;SDS011;39536;52.198;9.920;2023-02-26T09:53:25;1.27;;;0.97;;
13967;SDS011;39536;52.198;9.920;2023-02-26T09:55:56;5.23;;;0.80;;
13967;SDS011;39536;52.198;9.920;2023-02-26T09:58:28;1.40;;;0.90;;
13967;SDS011;39536;52.198;9.920;2023-02-26T10:00:59;3.20;;;1.00;;
13967;SDS011;39536;52.198;9.920;2023-02-26T10:03:33;3.27;;;1.20;;
13967;SDS011;39536;52.198;9.920;2023-02-26T10:06:15;3.43;;;0.90;;
13967;SDS011;39536;52.198;9.920;2023-02-26T10:08:51;1.27;;;0.77;;
13967;SDS011;39536;52.198;9.920;2023-02-26T10:11:36;1.73;;;1.03;;
13967;SDS011;39536;52.198;9.920;2023-02-26T10:14:13;0.90;;;0.80;;
13967;SDS011;39536;52.198;9.920;2023-02-26T10:16:44;3.47;;;1.10;;
13967;SDS011;39536;52.198;9.920;2023-02-26T10:19:15;3.60;;;1.10;;
13967;SDS011;39536;52.198;9.920;2023-02-26T10:21:45;2.53;;;0.70;;
13967;SDS011;39536;52.198;9.920;2023-02-26T10:24:17;3.13;;;1.30;;
13967;SDS011;39536;52.198;9.920;2023-02-26T10:26:49;3.47;;;1.23;;
13967;SDS011;39536;52.198;9.920;2023-02-26T10:29:20;2.70;;;0.70;;
13967;SDS011;39536;52.198;9.920;2023-02-26T10:31:56;0.80;;;0.80;;
13967;SDS011;39536;52.198;9.920;2023-02-26T10:34:29;1.57;;;1.00;;
13967;SDS011;39536;52.198;9.920;2023-02-26T10:37:02;4.40;;;1.40;;
13967;SDS011;39536;52.198;9.920;2023-02-26T10:39:37;1.97;;;1.13;;
13967;SDS011;39536;52.198;9.920;2023-02-26T10:42:10;6.20;;;3.40;;
13967;SDS011;39536;52.198;9.920;2023-02-26T10:44:59;2.80;;;1.47;;
13967;SDS011;39536;52.198;9.920;2023-02-26T10:47:38;2.50;;;1.20;;
13967;SDS011;39536;52.198;9.920;2023-02-26T10:50:11;1.63;;;1.10;;
13967;SDS011;39536;52.198;9.920;2023-02-26T10:52:41;2.13;;;1.40;;
13967;SDS011;39536;52.198;9.920;2023-02-26T10:55:24;1.93;;;1.43;;
13967;SDS011;39536;52.198;9.920;2023-02-26T10:57:59;1.37;;;0.90;;
13967;SDS011;39536;52.198;9.920;2023-02-26T11:00:30;7.17;;;1.73;;
13967;SDS011;39536;52.198;9.920;2023-02-26T11:03:00;2.60;;;0.80;;
13967;SDS011;39536;52.198;9.920;2023-02-26T11:05:30;1.50;;;0.70;;
13967;SDS011;39536;52.198;9.920;2023-02-26T11:07:59;0.80;;;0.70;;
13967;SDS011;39536;52.198;9.920;2023-02-26T11:10:32;2.50;;;1.80;;
13967;SDS011;39536;52.198;9.920;2023-02-26T11:13:05;2.37;;;0.73;;
13967;SDS011;39536;52.198;9.920;2023-02-26T11:15:32;1.60;;;0.80;;
13967;SDS011;39536;52.198;9.920;2023-02-26T11:18:01;0.97;;;0.80;;
13967;SDS011;39536;52.198;9.920;2023-02-26T11:20:30;1.23;;;0.60;;
13967;SDS011;39536;52.198;9.920;2023-02-26T11:23:01;0.87;;;0.70;;
13967;SDS011;39536;52.198;9.920;2023-02-26T11:25:31;3.70;;;1.07;;
13967;SDS011;39536;52.198;9.920;2023-02-26T11:28:01;1.17;;;0.80;;
13967;SDS011;39536;52.198;9.920;2023-02-26T11:30:29;3.20;;;0.90;;
13967;SDS011;39536;52.198;9.920;2023-02-26T11:32:58;1.07;;;0.67;;
13967;SDS011;39536;52.198;9.920;2023-02-26T11:35:32;1.93;;;0.77;;
13967;SDS011;39536;52.198;9.920;2023-02-26T11:38:00;0.60;;;0.60;;
13967;SDS011;39536;52.198;9.920;2023-02-26T11:40:31;3.03;;;0.60;;
13967;SDS011;39536;52.198;9.920;2023-02-26T11:43:03;0.80;;;0.80;;
13967;SDS011;39536;52.198;9.920;2023-02-26T11:45:33;2.20;;;0.70;;
13967;SDS011;39536;52.198;9.920;2023-02-26T11:48:05;1.00;;;0.73;;
13967;SDS011;39536;52.198;9.920;2023-02-26T11:50:37;1.67;;;0.73;;
13967;SDS011;39536;52.198;9.920;2023-02-26T11:53:14;0.70;;;0.70;;
13967;SDS011;39536;52.198;9.920;2023-02-26T11:55:44;1.20;;;0.67;;
13967;SDS011;39536;52.198;9.920;2023-02-26T11:58:17;1.43;;;0.80;;
13967;SDS011;39536;52.198;9.920;2023-02-26T12:00:45;1.10;;;0.80;;
13967;SDS011;39536;52.198;9.920;2023-02-26T12:03:16;2.10;;;0.97;;
13967;SDS011;39536;52.198;9.920;2023-02-26T12:05:45;1.00;;;0.63;;
13967;SDS011;39536;52.198;9.920;2023-02-26T12:08:15;0.73;;;0.53;;
13967;SDS011;39536;52.198;9.920;2023-02-26T12:10:48;1.77;;;0.60;;
13967;SDS011;39536;52.198;9.920;2023-02-26T12:13:26;2.13;;;0.63;;
13967;SDS011;39536;52.198;9.920;2023-02-26T12:15:59;0.93;;;0.30;;
13967;SDS011;39536;52.198;9.920;2023-02-26T12:18:37;2.40;;;1.03;;
13967;SDS011;39536;52.198;9.920;2023-02-26T12:21:20;2.00;;;0.77;;
13967;SDS011;39536;52.198;9.920;2023-02-26T12:26:52;1.37;;;0.60;;
13967;SDS011;39536;52.198;9.920;2023-02-26T12:29:28;2.47;;;0.50;;
13967;SDS011;39536;52.198;9.920;2023-02-26T12:32:13;1.27;;;0.53;;
13967;SDS011;39536;52.198;9.920;2023-02-26T12:35:00;0.70;;;0.50;;
13967;SDS011;39536;52.198;9.920;2023-02-26T12:37:48;2.00;;;0.50;;
13967;SDS011;39536;52.198;9.920;2023-02-26T12:40:26;0.43;;;0.40;;
13967;SDS011;39536;52.198;9.920;2023-02-26T12:43:09;0.30;;;0.30;;
13967;SDS011;39536;52.198;9.920;2023-02-26T12:45:44;0.30;;;0.30;;
13967;SDS011;39536;52.198;9.920;2023-02-26T12:48:24;1.80;;;0.67;;
13967;SDS011;39536;52.198;9.920;2023-02-26T12:51:17;0.73;;;0.57;;
13967;SDS011;39536;52.198;9.920;2023-02-26T12:59:51;1.93;;;0.43;;
13967;SDS011;39536;52.198;9.920;2023-02-26T13:06:10;1.27;;;0.80;;
13967;SDS011;39536;52.198;9.920;2023-02-26T13:08:47;1.73;;;1.17;;
13967;SDS011;39536;52.198;9.920;2023-02-26T13:11:27;0.80;;;0.80;;
13967;SDS011;39536;52.198;9.920;2023-02-26T13:14:14;0.63;;;0.60;;
13967;SDS011;39536;52.198;9.920;2023-02-26T13:16:53;2.70;;;2.30;;
13967;SDS011;39536;52.198;9.920;2023-02-26T13:19:27;1.63;;;1.23;;
13967;SDS011;39536;52.198;9.920;2023-02-26T13:22:02;1.93;;;1.83;;
13967;SDS011;39536;52.198;9.920;2023-02-26T13:24:37;2.57;;;2.40;;
13967;SDS011;39536;52.198;9.920;2023-02-26T13:27:06;1.63;;;1.43;;
13967;SDS011;39536;52.198;9.920;2023-02-26T13:29:35;2.07;;;1.87;;
13967;SDS011;39536;52.198;9.920;2023-02-26T13:32:09;0.50;;;0.43;;
13967;SDS011;39536;52.198;9.920;2023-02-26T13:34:40;0.40;;;0.40;;
13967;SDS011;39536;52.198;9.920;2023-02-26T13:37:21;1.13;;;0.50;;
13967;SDS011;39536;52.198;9.920;2023-02-26T13:39:54;3.40;;;0.83;;
13967;SDS011;39536;52.198;9.920;2023-02-26T13:42:37;2.30;;;0.70;;
13967;SDS011;39536;52.198;9.920;2023-02-26T13:45:21;0.70;;;0.70;;
13967;SDS011;39536;52.198;9.920;2023-02-26T13:48:03;0.30;;;0.30;;
13967;SDS011;39536;52.198;9.920;2023-02-26T13:50:40;1.33;;;0.70;;
13967;SDS011;39536;52.198;9.920;2023-02-26T13:53:45;0.43;;;0.40;;
13967;SDS011;39536;52.198;9.920;2023-02-26T13:56:16;0.57;;;0.57;;
13967;SDS011;39536;52.198;9.920;2023-02-26T13:58:47;0.90;;;0.67;;
13967;SDS011;39536;52.198;9.920;2023-02-26T14:01:17;1.17;;;0.50;;
13967;SDS011;39536;52.198;9.920;2023-02-26T14:03:46;2.50;;;1.10;;
13967;SDS011;39536;52.198;9.920;2023-02-26T14:06:23;1.40;;;1.07;;
13967;SDS011;39536;52.198;9.920;2023-02-26T14:09:03;2.77;;;1.63;;
13967;SDS011;39536;52.198;9.920;2023-02-26T14:20:16;1.77;;;1.00;;
13967;SDS011;39536;52.198;9.920;2023-02-26T14:22:47;2.93;;;0.77;;
13967;SDS011;39536;52.198;9.920;2023-02-26T14:25:20;0.83;;;0.67;;
13967;SDS011;39536;52.198;9.920;2023-02-26T14:30:45;0.40;;;0.40;;
13967;SDS011;39536;52.198;9.920;2023-02-26T14:33:15;1.60;;;1.03;;
13967;SDS011;39536;52.198;9.920;2023-02-26T14:35:44;1.90;;;1.67;;
13967;SDS011;39536;52.198;9.920;2023-02-26T14:38:15;2.50;;;0.90;;
13967;SDS011;39536;52.198;9.920;2023-02-26T14:40:48;0.40;;;0.40;;
13967;SDS011;39536;52.198;9.920;2023-02-26T14:43:17;1.20;;;0.60;;
13967;SDS011;39536;52.198;9.920;2023-02-26T14:45:47;0.33;;;0.33;;
13967;SDS011;39536;52.198;9.920;2023-02-26T14:48:16;0.70;;;0.70;;
13967;SDS011;39536;52.198;9.920;2023-02-26T14:50:46;0.83;;;0.47;;
13967;SDS011;39536;52.198;9.920;2023-02-26T14:56:22;1.57;;;0.70;;
13967;SDS011;39536;52.198;9.920;2023-02-26T14:59:03;0.73;;;0.60;;
13967;SDS011;39536;52.198;9.920;2023-02-26T15:01:43;0.83;;;0.80;;
13967;SDS011;39536;52.198;9.920;2023-02-26T15:04:17;0.60;;;0.60;;
13967;SDS011;39536;52.198;9.920;2023-02-26T15:07:07;1.83;;;1.50;;
13967;SDS011;39536;52.198;9.920;2023-02-26T15:09:48;0.80;;;0.80;;
13967;SDS011;39536;52.198;9.920;2023-02-26T15:12:34;2.27;;;1.20;;
13967;SDS011;39536;52.198;9.920;2023-02-26T15:15:15;0.70;;;0.70;;
13967;SDS011;39536;52.198;9.920;2023-02-26T15:17:53;0.80;;;0.57;;
13967;SDS011;39536;52.198;9.920;2023-02-26T15:20:29;0.50;;;0.40;;
13967;SDS011;39536;52.198;9.920;2023-02-26T15:23:14;0.87;;;0.63;;
13967;SDS011;39536;52.198;9.920;2023-02-26T15:25:52;1.60;;;0.70;;
13967;SDS011;39536;52.198;9.920;2023-02-26T15:28:23;0.80;;;0.70;;
13967;SDS011;39536;52.198;9.920;2023-02-26T15:30:53;1.27;;;0.43;;
13967;SDS011;39536;52.198;9.920;2023-02-26T15:33:22;1.50;;;0.60;;
13967;SDS011;39536;52.198;9.920;2023-02-26T15:35:50;0.40;;;0.40;;
13967;SDS011;39536;52.198;9.920;2023-02-26T15:38:17;0.60;;;0.40;;
13967;SDS011;39536;52.198;9.920;2023-02-26T15:40:44;0.90;;;0.60;;
13967;SDS011;39536;52.198;9.920;2023-02-26T15:43:13;1.07;;;0.50;;
13967;SDS011;39536;52.198;9.920;2023-02-26T15:45:45;0.47;;;0.47;;